sensor_id;sensor_type;location;lat;lon;timestamp;P1;durP1;ratioP1;P2;durP2;ratioP2
21527;SDS011;10925;49.102;-0.370;2023-05-19T00:00:21;23.25;;;7.50;;
21527;SDS011;10925;49.102;-0.370;2023-05-19T00:02:48;19.73;;;7.38;;
21527;SDS011;10925;49.102;-0.370;2023-05-19T00:05:16;21.73;;;8.18;;
21527;SDS011;10925;49.102;-0.370;2023-05-19T00:07:43;21.27;;;8.10;;
21527;SDS011;10925;49.102;-0.370;2023-05-19T00:10:11;15.05;;;7.22;;
21527;SDS011;10925;49.102;-0.370;2023-05-19T00:12:38;20.73;;;8.30;;
21527;SDS011;10925;49.102;-0.370;2023-05-19T00:15:05;18.75;;;8.00;;
21527;SDS011;10925;49.102;-0.370;2023-05-19T00:17:32;26.08;;;7.78;;
21527;SDS011;10925;49.102;-0.370;2023-05-19T00:19:59;24.45;;;8.38;;
21527;SDS011;10925;49.102;-0.370;2023-05-19T00:22:26;27.45;;;8.60;;
21527;SDS011;10925;49.102;-0.370;2023-05-19T00:24:53;25.83;;;8.48;;
21527;SDS011;10925;49.102;-0.370;2023-05-19T00:27:20;21.23;;;8.52;;
21527;SDS011;10925;49.102;-0.370;2023-05-19T00:29:47;25.67;;;8.70;;
21527;SDS011;10925;49.102;-0.370;2023-05-19T00:32:13;19.92;;;8.20;;
21527;SDS011;10925;49.102;-0.370;2023-05-19T00:34:41;20.95;;;8.27;;
21527;SDS011;10925;49.102;-0.370;2023-05-19T00:37:08;24.73;;;8.88;;
21527;SDS011;10925;49.102;-0.370;2023-05-19T00:39:35;28.20;;;8.77;;
21527;SDS011;10925;49.102;-0.370;2023-05-19T00:42:00;31.77;;;8.38;;
21527;SDS011;10925;49.102;-0.370;2023-05-19T00:44:28;22.35;;;8.25;;
21527;SDS011;10925;49.102;-0.370;2023-05-19T00:46:55;29.05;;;8.77;;
21527;SDS011;10925;49.102;-0.370;2023-05-19T00:49:20;24.05;;;9.13;;
21527;SDS011;10925;49.102;-0.370;2023-05-19T00:51:47;28.77;;;9.40;;
21527;SDS011;10925;49.102;-0.370;2023-05-19T00:54:14;21.48;;;10.05;;
21527;SDS011;10925;49.102;-0.370;2023-05-19T00:56:41;30.60;;;9.30;;
21527;SDS011;10925;49.102;-0.370;2023-05-19T00:59:08;26.48;;;9.80;;
21527;SDS011;10925;49.102;-0.370;2023-05-19T01:01:34;29.40;;;9.70;;
21527;SDS011;10925;49.102;-0.370;2023-05-19T01:07:00;23.75;;;9.05;;
21527;SDS011;10925;49.102;-0.370;2023-05-19T01:09:25;21.77;;;9.10;;
21527;SDS011;10925;49.102;-0.370;2023-05-19T01:11:52;26.95;;;8.95;;
21527;SDS011;10925;49.102;-0.370;2023-05-19T01:14:19;26.88;;;8.93;;
21527;SDS011;10925;49.102;-0.370;2023-05-19T01:16:47;27.58;;;8.63;;
21527;SDS011;10925;49.102;-0.370;2023-05-19T01:32:49;25.60;;;8.82;;
21527;SDS011;10925;49.102;-0.370;2023-05-19T01:35:18;23.85;;;9.07;;
21527;SDS011;10925;49.102;-0.370;2023-05-19T01:37:45;22.88;;;9.20;;
21527;SDS011;10925;49.102;-0.370;2023-05-19T01:40:12;24.48;;;10.32;;
21527;SDS011;10925;49.102;-0.370;2023-05-19T01:42:39;26.80;;;10.00;;
21527;SDS011;10925;49.102;-0.370;2023-05-19T01:45:06;30.83;;;10.18;;
21527;SDS011;10925;49.102;-0.370;2023-05-19T01:47:37;28.42;;;10.32;;
21527;SDS011;10925;49.102;-0.370;2023-05-19T01:50:04;27.88;;;9.95;;
21527;SDS011;10925;49.102;-0.370;2023-05-19T01:52:31;24.77;;;10.23;;
21527;SDS011;10925;49.102;-0.370;2023-05-19T01:54:58;26.08;;;10.95;;
21527;SDS011;10925;49.102;-0.370;2023-05-19T02:02:54;28.60;;;9.98;;
21527;SDS011;10925;49.102;-0.370;2023-05-19T02:08:05;30.65;;;11.68;;
21527;SDS011;10925;49.102;-0.370;2023-05-19T02:10:34;33.72;;;13.45;;
21527;SDS011;10925;49.102;-0.370;2023-05-19T02:13:04;31.33;;;11.98;;
21527;SDS011;10925;49.102;-0.370;2023-05-19T02:15:39;33.78;;;11.80;;
21527;SDS011;10925;49.102;-0.370;2023-05-19T02:18:07;31.55;;;12.27;;
21527;SDS011;10925;49.102;-0.370;2023-05-19T02:20:35;46.20;;;12.73;;
21527;SDS011;10925;49.102;-0.370;2023-05-19T02:23:02;43.08;;;12.52;;
21527;SDS011;10925;49.102;-0.370;2023-05-19T02:25:29;39.67;;;13.05;;
21527;SDS011;10925;49.102;-0.370;2023-05-19T02:27:56;34.92;;;12.57;;
21527;SDS011;10925;49.102;-0.370;2023-05-19T02:30:23;34.92;;;12.73;;
21527;SDS011;10925;49.102;-0.370;2023-05-19T02:32:50;37.88;;;11.88;;
21527;SDS011;10925;49.102;-0.370;2023-05-19T02:35:16;37.28;;;12.77;;
21527;SDS011;10925;49.102;-0.370;2023-05-19T02:37:43;38.00;;;13.40;;
21527;SDS011;10925;49.102;-0.370;2023-05-19T02:40:10;39.97;;;13.85;;
21527;SDS011;10925;49.102;-0.370;2023-05-19T02:42:36;33.42;;;13.48;;
21527;SDS011;10925;49.102;-0.370;2023-05-19T02:45:03;38.47;;;12.73;;
21527;SDS011;10925;49.102;-0.370;2023-05-19T02:47:30;39.58;;;12.88;;
21527;SDS011;10925;49.102;-0.370;2023-05-19T02:49:58;35.00;;;13.57;;
21527;SDS011;10925;49.102;-0.370;2023-05-19T02:52:25;38.15;;;11.75;;
21527;SDS011;10925;49.102;-0.370;2023-05-19T02:54:52;33.85;;;11.63;;
21527;SDS011;10925;49.102;-0.370;2023-05-19T02:57:19;32.30;;;11.75;;
21527;SDS011;10925;49.102;-0.370;2023-05-19T02:59:46;29.83;;;11.45;;
21527;SDS011;10925;49.102;-0.370;2023-05-19T03:02:11;34.95;;;11.90;;
21527;SDS011;10925;49.102;-0.370;2023-05-19T03:04:38;31.05;;;11.82;;
21527;SDS011;10925;49.102;-0.370;2023-05-19T03:07:08;34.20;;;11.63;;
21527;SDS011;10925;49.102;-0.370;2023-05-19T03:09:38;29.80;;;11.45;;
21527;SDS011;10925;49.102;-0.370;2023-05-19T03:12:05;30.70;;;11.45;;
21527;SDS011;10925;49.102;-0.370;2023-05-19T03:14:33;32.65;;;11.65;;
21527;SDS011;10925;49.102;-0.370;2023-05-19T03:17:00;34.20;;;11.63;;
21527;SDS011;10925;49.102;-0.370;2023-05-19T03:19:25;31.35;;;11.63;;
21527;SDS011;10925;49.102;-0.370;2023-05-19T03:21:51;39.33;;;11.90;;
21527;SDS011;10925;49.102;-0.370;2023-05-19T03:24:18;36.08;;;11.35;;
21527;SDS011;10925;49.102;-0.370;2023-05-19T03:26:45;37.08;;;10.95;;
21527;SDS011;10925;49.102;-0.370;2023-05-19T03:29:11;29.90;;;10.77;;
21527;SDS011;10925;49.102;-0.370;2023-05-19T03:31:38;33.45;;;11.40;;
21527;SDS011;10925;49.102;-0.370;2023-05-19T03:34:05;33.25;;;10.73;;
21527;SDS011;10925;49.102;-0.370;2023-05-19T03:36:32;30.63;;;11.27;;
21527;SDS011;10925;49.102;-0.370;2023-05-19T03:39:10;29.10;;;11.43;;
21527;SDS011;10925;49.102;-0.370;2023-05-19T03:41:37;32.60;;;12.02;;
21527;SDS011;10925;49.102;-0.370;2023-05-19T03:44:04;27.00;;;10.65;;
21527;SDS011;10925;49.102;-0.370;2023-05-19T03:46:29;35.15;;;11.65;;
21527;SDS011;10925;49.102;-0.370;2023-05-19T03:48:55;35.28;;;12.25;;
21527;SDS011;10925;49.102;-0.370;2023-05-19T03:51:47;34.05;;;11.57;;
21527;SDS011;10925;49.102;-0.370;2023-05-19T03:54:13;37.05;;;11.30;;
21527;SDS011;10925;49.102;-0.370;2023-05-19T03:56:40;40.97;;;11.95;;
21527;SDS011;10925;49.102;-0.370;2023-05-19T03:59:07;29.13;;;11.00;;
21527;SDS011;10925;49.102;-0.370;2023-05-19T04:01:36;28.80;;;10.60;;
21527;SDS011;10925;49.102;-0.370;2023-05-19T04:04:03;26.73;;;10.63;;
21527;SDS011;10925;49.102;-0.370;2023-05-19T04:06:30;26.73;;;10.57;;
21527;SDS011;10925;49.102;-0.370;2023-05-19T04:08:57;31.52;;;12.27;;
21527;SDS011;10925;49.102;-0.370;2023-05-19T04:11:24;30.60;;;11.55;;
21527;SDS011;10925;49.102;-0.370;2023-05-19T04:13:50;24.92;;;10.52;;
21527;SDS011;10925;49.102;-0.370;2023-05-19T04:16:17;26.92;;;10.30;;
21527;SDS011;10925;49.102;-0.370;2023-05-19T04:18:47;27.67;;;10.57;;
21527;SDS011;10925;49.102;-0.370;2023-05-19T04:21:14;30.05;;;11.77;;
21527;SDS011;10925;49.102;-0.370;2023-05-19T04:23:41;25.52;;;10.15;;
21527;SDS011;10925;49.102;-0.370;2023-05-19T04:26:08;28.13;;;11.35;;
21527;SDS011;10925;49.102;-0.370;2023-05-19T04:28:34;37.00;;;13.05;;
21527;SDS011;10925;49.102;-0.370;2023-05-19T04:31:04;34.58;;;12.52;;
21527;SDS011;10925;49.102;-0.370;2023-05-19T04:33:36;39.00;;;13.63;;
21527;SDS011;10925;49.102;-0.370;2023-05-19T04:36:05;36.15;;;13.70;;
21527;SDS011;10925;49.102;-0.370;2023-05-19T04:38:33;38.20;;;13.43;;
21527;SDS011;10925;49.102;-0.370;2023-05-19T04:40:58;34.70;;;13.00;;
21527;SDS011;10925;49.102;-0.370;2023-05-19T04:43:26;37.63;;;13.75;;
21527;SDS011;10925;49.102;-0.370;2023-05-19T04:45:52;46.10;;;14.90;;
21527;SDS011;10925;49.102;-0.370;2023-05-19T04:48:20;30.92;;;12.45;;
21527;SDS011;10925;49.102;-0.370;2023-05-19T04:50:47;34.70;;;13.80;;
21527;SDS011;10925;49.102;-0.370;2023-05-19T04:53:13;34.10;;;13.07;;
21527;SDS011;10925;49.102;-0.370;2023-05-19T04:55:40;33.45;;;13.40;;
21527;SDS011;10925;49.102;-0.370;2023-05-19T04:58:07;41.97;;;14.38;;
21527;SDS011;10925;49.102;-0.370;2023-05-19T05:00:35;36.45;;;14.30;;
21527;SDS011;10925;49.102;-0.370;2023-05-19T05:03:02;32.83;;;14.02;;
21527;SDS011;10925;49.102;-0.370;2023-05-19T05:05:31;36.95;;;14.13;;
21527;SDS011;10925;49.102;-0.370;2023-05-19T05:07:59;36.63;;;14.82;;
21527;SDS011;10925;49.102;-0.370;2023-05-19T05:10:30;41.17;;;15.52;;
21527;SDS011;10925;49.102;-0.370;2023-05-19T05:12:55;42.33;;;17.40;;
21527;SDS011;10925;49.102;-0.370;2023-05-19T05:15:21;36.78;;;15.05;;
21527;SDS011;10925;49.102;-0.370;2023-05-19T05:17:46;44.38;;;16.15;;
21527;SDS011;10925;49.102;-0.370;2023-05-19T05:20:14;33.50;;;14.93;;
21527;SDS011;10925;49.102;-0.370;2023-05-19T05:22:41;30.05;;;14.75;;
21527;SDS011;10925;49.102;-0.370;2023-05-19T05:25:08;33.42;;;14.82;;
21527;SDS011;10925;49.102;-0.370;2023-05-19T05:27:34;31.80;;;15.13;;
21527;SDS011;10925;49.102;-0.370;2023-05-19T05:30:03;35.47;;;14.75;;
21527;SDS011;10925;49.102;-0.370;2023-05-19T05:32:30;27.40;;;14.55;;
21527;SDS011;10925;49.102;-0.370;2023-05-19T05:34:56;33.63;;;15.30;;
21527;SDS011;10925;49.102;-0.370;2023-05-19T05:37:21;36.22;;;15.00;;
21527;SDS011;10925;49.102;-0.370;2023-05-19T05:39:48;33.97;;;13.73;;
21527;SDS011;10925;49.102;-0.370;2023-05-19T05:42:14;31.40;;;14.88;;
21527;SDS011;10925;49.102;-0.370;2023-05-19T05:44:40;27.40;;;13.60;;
21527;SDS011;10925;49.102;-0.370;2023-05-19T05:47:06;37.47;;;13.18;;
21527;SDS011;10925;49.102;-0.370;2023-05-19T05:49:33;30.52;;;14.20;;
21527;SDS011;10925;49.102;-0.370;2023-05-19T05:52:03;29.80;;;12.15;;
21527;SDS011;10925;49.102;-0.370;2023-05-19T05:54:32;20.95;;;10.43;;
21527;SDS011;10925;49.102;-0.370;2023-05-19T05:56:58;25.60;;;11.70;;
21527;SDS011;10925;49.102;-0.370;2023-05-19T05:59:23;31.38;;;10.68;;
21527;SDS011;10925;49.102;-0.370;2023-05-19T06:01:50;27.33;;;9.68;;
21527;SDS011;10925;49.102;-0.370;2023-05-19T06:04:17;20.42;;;9.48;;
21527;SDS011;10925;49.102;-0.370;2023-05-19T06:06:44;25.17;;;8.93;;
21527;SDS011;10925;49.102;-0.370;2023-05-19T06:09:15;21.40;;;8.20;;
21527;SDS011;10925;49.102;-0.370;2023-05-19T06:11:42;18.35;;;7.88;;
21527;SDS011;10925;49.102;-0.370;2023-05-19T06:14:09;25.35;;;7.65;;
21527;SDS011;10925;49.102;-0.370;2023-05-19T06:16:36;15.88;;;7.22;;
21527;SDS011;10925;49.102;-0.370;2023-05-19T06:19:03;17.10;;;6.05;;
21527;SDS011;10925;49.102;-0.370;2023-05-19T06:21:30;21.17;;;6.45;;
21527;SDS011;10925;49.102;-0.370;2023-05-19T06:23:57;16.38;;;6.15;;
21527;SDS011;10925;49.102;-0.370;2023-05-19T06:26:22;12.13;;;5.22;;
21527;SDS011;10925;49.102;-0.370;2023-05-19T06:28:49;15.90;;;5.80;;
21527;SDS011;10925;49.102;-0.370;2023-05-19T06:31:16;21.13;;;5.32;;
21527;SDS011;10925;49.102;-0.370;2023-05-19T06:33:41;15.52;;;4.85;;
21527;SDS011;10925;49.102;-0.370;2023-05-19T06:36:07;18.35;;;6.70;;
21527;SDS011;10925;49.102;-0.370;2023-05-19T06:38:37;16.05;;;4.78;;
21527;SDS011;10925;49.102;-0.370;2023-05-19T06:41:05;16.67;;;6.35;;
21527;SDS011;10925;49.102;-0.370;2023-05-19T06:43:31;15.85;;;4.78;;
21527;SDS011;10925;49.102;-0.370;2023-05-19T06:46:01;13.20;;;5.07;;
21527;SDS011;10925;49.102;-0.370;2023-05-19T06:48:30;14.43;;;4.50;;
21527;SDS011;10925;49.102;-0.370;2023-05-19T06:50:57;17.27;;;5.20;;
21527;SDS011;10925;49.102;-0.370;2023-05-19T06:53:24;19.25;;;5.47;;
21527;SDS011;10925;49.102;-0.370;2023-05-19T06:55:52;11.75;;;5.35;;
21527;SDS011;10925;49.102;-0.370;2023-05-19T06:58:25;14.82;;;4.95;;
21527;SDS011;10925;49.102;-0.370;2023-05-19T07:00:51;15.32;;;5.68;;
21527;SDS011;10925;49.102;-0.370;2023-05-19T07:03:20;18.92;;;5.45;;
21527;SDS011;10925;49.102;-0.370;2023-05-19T07:05:47;21.55;;;5.97;;
21527;SDS011;10925;49.102;-0.370;2023-05-19T07:08:14;9.25;;;4.82;;
21527;SDS011;10925;49.102;-0.370;2023-05-19T07:10:41;13.07;;;5.25;;
21527;SDS011;10925;49.102;-0.370;2023-05-19T07:13:11;12.85;;;4.65;;
21527;SDS011;10925;49.102;-0.370;2023-05-19T07:15:36;19.55;;;5.80;;
21527;SDS011;10925;49.102;-0.370;2023-05-19T07:18:02;14.45;;;5.20;;
21527;SDS011;10925;49.102;-0.370;2023-05-19T07:20:27;18.35;;;5.60;;
21527;SDS011;10925;49.102;-0.370;2023-05-19T07:22:55;10.75;;;4.93;;
21527;SDS011;10925;49.102;-0.370;2023-05-19T07:25:23;16.27;;;4.57;;
21527;SDS011;10925;49.102;-0.370;2023-05-19T07:27:51;14.02;;;4.75;;
21527;SDS011;10925;49.102;-0.370;2023-05-19T07:30:18;15.45;;;5.18;;
21527;SDS011;10925;49.102;-0.370;2023-05-19T07:32:45;16.20;;;4.50;;
21527;SDS011;10925;49.102;-0.370;2023-05-19T07:35:11;11.50;;;4.50;;
21527;SDS011;10925;49.102;-0.370;2023-05-19T07:37:38;15.60;;;4.65;;
21527;SDS011;10925;49.102;-0.370;2023-05-19T07:40:05;18.80;;;4.93;;
21527;SDS011;10925;49.102;-0.370;2023-05-19T07:42:33;14.30;;;4.30;;
21527;SDS011;10925;49.102;-0.370;2023-05-19T07:45:00;15.02;;;4.47;;
21527;SDS011;10925;49.102;-0.370;2023-05-19T07:47:28;16.58;;;4.97;;
21527;SDS011;10925;49.102;-0.370;2023-05-19T07:49:55;13.82;;;4.55;;
21527;SDS011;10925;49.102;-0.370;2023-05-19T07:52:22;12.48;;;4.90;;
21527;SDS011;10925;49.102;-0.370;2023-05-19T07:54:49;15.63;;;5.20;;
21527;SDS011;10925;49.102;-0.370;2023-05-19T07:57:15;15.60;;;4.93;;
21527;SDS011;10925;49.102;-0.370;2023-05-19T07:59:43;13.88;;;5.28;;
21527;SDS011;10925;49.102;-0.370;2023-05-19T08:02:09;10.90;;;4.10;;
21527;SDS011;10925;49.102;-0.370;2023-05-19T08:04:36;11.13;;;5.15;;
21527;SDS011;10925;49.102;-0.370;2023-05-19T08:07:02;13.55;;;4.70;;
21527;SDS011;10925;49.102;-0.370;2023-05-19T08:09:28;12.52;;;4.47;;
21527;SDS011;10925;49.102;-0.370;2023-05-19T08:11:53;11.35;;;4.65;;
21527;SDS011;10925;49.102;-0.370;2023-05-19T08:14:20;13.65;;;4.38;;
21527;SDS011;10925;49.102;-0.370;2023-05-19T08:16:49;10.63;;;4.63;;
21527;SDS011;10925;49.102;-0.370;2023-05-19T08:21:41;12.68;;;4.40;;
21527;SDS011;10925;49.102;-0.370;2023-05-19T08:24:08;14.63;;;4.63;;
21527;SDS011;10925;49.102;-0.370;2023-05-19T08:26:35;10.80;;;4.00;;
21527;SDS011;10925;49.102;-0.370;2023-05-19T08:29:03;9.52;;;3.92;;
21527;SDS011;10925;49.102;-0.370;2023-05-19T08:31:28;10.75;;;4.75;;
21527;SDS011;10925;49.102;-0.370;2023-05-19T08:33:55;15.73;;;5.45;;
21527;SDS011;10925;49.102;-0.370;2023-05-19T08:36:22;13.25;;;5.63;;
21527;SDS011;10925;49.102;-0.370;2023-05-19T08:38:50;13.27;;;5.57;;
21527;SDS011;10925;49.102;-0.370;2023-05-19T08:41:17;12.93;;;5.63;;
21527;SDS011;10925;49.102;-0.370;2023-05-19T08:43:43;15.80;;;5.07;;
21527;SDS011;10925;49.102;-0.370;2023-05-19T08:46:09;17.95;;;6.47;;
21527;SDS011;10925;49.102;-0.370;2023-05-19T08:48:39;17.48;;;6.80;;
21527;SDS011;10925;49.102;-0.370;2023-05-19T08:53:38;14.85;;;6.22;;
21527;SDS011;10925;49.102;-0.370;2023-05-19T08:56:08;14.75;;;6.72;;
21527;SDS011;10925;49.102;-0.370;2023-05-19T08:58:40;15.25;;;6.53;;
21527;SDS011;10925;49.102;-0.370;2023-05-19T09:01:09;19.85;;;6.30;;
21527;SDS011;10925;49.102;-0.370;2023-05-19T09:03:39;13.13;;;6.43;;
21527;SDS011;10925;49.102;-0.370;2023-05-19T09:06:07;16.85;;;7.03;;
21527;SDS011;10925;49.102;-0.370;2023-05-19T09:08:34;12.73;;;6.38;;
21527;SDS011;10925;49.102;-0.370;2023-05-19T09:11:02;27.65;;;9.13;;
21527;SDS011;10925;49.102;-0.370;2023-05-19T09:13:29;14.82;;;6.88;;
21527;SDS011;10925;49.102;-0.370;2023-05-19T09:15:55;21.08;;;7.85;;
21527;SDS011;10925;49.102;-0.370;2023-05-19T09:18:23;16.88;;;7.60;;
21527;SDS011;10925;49.102;-0.370;2023-05-19T09:20:50;23.02;;;8.45;;
21527;SDS011;10925;49.102;-0.370;2023-05-19T09:23:17;17.98;;;8.60;;
21527;SDS011;10925;49.102;-0.370;2023-05-19T09:25:47;16.13;;;7.45;;
21527;SDS011;10925;49.102;-0.370;2023-05-19T09:28:21;17.33;;;6.57;;
21527;SDS011;10925;49.102;-0.370;2023-05-19T09:30:48;15.88;;;6.00;;
21527;SDS011;10925;49.102;-0.370;2023-05-19T09:33:18;19.38;;;8.00;;
21527;SDS011;10925;49.102;-0.370;2023-05-19T09:35:45;19.65;;;8.85;;
21527;SDS011;10925;49.102;-0.370;2023-05-19T09:38:22;18.38;;;8.35;;
21527;SDS011;10925;49.102;-0.370;2023-05-19T09:40:49;20.63;;;9.40;;
21527;SDS011;10925;49.102;-0.370;2023-05-19T09:43:16;15.40;;;8.02;;
21527;SDS011;10925;49.102;-0.370;2023-05-19T09:45:43;24.63;;;10.43;;
21527;SDS011;10925;49.102;-0.370;2023-05-19T09:48:09;23.13;;;10.50;;
21527;SDS011;10925;49.102;-0.370;2023-05-19T09:50:35;23.55;;;9.65;;
21527;SDS011;10925;49.102;-0.370;2023-05-19T09:53:02;26.80;;;10.02;;
21527;SDS011;10925;49.102;-0.370;2023-05-19T09:55:28;13.85;;;7.28;;
21527;SDS011;10925;49.102;-0.370;2023-05-19T09:57:55;19.25;;;9.65;;
21527;SDS011;10925;49.102;-0.370;2023-05-19T10:00:22;23.38;;;9.65;;
21527;SDS011;10925;49.102;-0.370;2023-05-19T10:02:49;17.90;;;7.72;;
21527;SDS011;10925;49.102;-0.370;2023-05-19T10:05:16;20.63;;;8.43;;
21527;SDS011;10925;49.102;-0.370;2023-05-19T10:07:46;17.45;;;7.43;;
21527;SDS011;10925;49.102;-0.370;2023-05-19T10:10:14;21.95;;;7.65;;
21527;SDS011;10925;49.102;-0.370;2023-05-19T10:12:40;18.20;;;7.82;;
21527;SDS011;10925;49.102;-0.370;2023-05-19T10:15:11;13.02;;;5.30;;
21527;SDS011;10925;49.102;-0.370;2023-05-19T10:17:37;15.63;;;6.88;;
21527;SDS011;10925;49.102;-0.370;2023-05-19T10:20:05;18.17;;;7.18;;
21527;SDS011;10925;49.102;-0.370;2023-05-19T10:22:32;19.33;;;7.10;;
21527;SDS011;10925;49.102;-0.370;2023-05-19T10:24:59;17.02;;;6.68;;
21527;SDS011;10925;49.102;-0.370;2023-05-19T10:27:27;14.15;;;6.10;;
21527;SDS011;10925;49.102;-0.370;2023-05-19T10:29:55;12.98;;;6.03;;
21527;SDS011;10925;49.102;-0.370;2023-05-19T10:32:23;11.13;;;6.05;;
21527;SDS011;10925;49.102;-0.370;2023-05-19T10:40:40;19.02;;;8.00;;
21527;SDS011;10925;49.102;-0.370;2023-05-19T10:43:29;23.48;;;8.50;;
21527;SDS011;10925;49.102;-0.370;2023-05-19T10:45:57;16.70;;;7.05;;
21527;SDS011;10925;49.102;-0.370;2023-05-19T10:48:24;18.52;;;7.95;;
21527;SDS011;10925;49.102;-0.370;2023-05-19T10:50:52;15.95;;;5.80;;
21527;SDS011;10925;49.102;-0.370;2023-05-19T10:56:42;18.98;;;9.00;;
21527;SDS011;10925;49.102;-0.370;2023-05-19T10:59:28;16.65;;;7.72;;
21527;SDS011;10925;49.102;-0.370;2023-05-19T11:02:04;15.98;;;6.75;;
21527;SDS011;10925;49.102;-0.370;2023-05-19T11:04:44;14.35;;;7.45;;
21527;SDS011;10925;49.102;-0.370;2023-05-19T11:07:16;18.58;;;8.23;;
21527;SDS011;10925;49.102;-0.370;2023-05-19T11:09:48;19.35;;;8.00;;
21527;SDS011;10925;49.102;-0.370;2023-05-19T11:12:13;16.65;;;7.60;;
21527;SDS011;10925;49.102;-0.370;2023-05-19T11:14:45;18.20;;;6.93;;
21527;SDS011;10925;49.102;-0.370;2023-05-19T11:17:14;19.73;;;7.90;;
21527;SDS011;10925;49.102;-0.370;2023-05-19T11:19:51;12.93;;;6.03;;
21527;SDS011;10925;49.102;-0.370;2023-05-19T11:22:21;13.98;;;7.30;;
21527;SDS011;10925;49.102;-0.370;2023-05-19T11:24:47;15.98;;;7.80;;
21527;SDS011;10925;49.102;-0.370;2023-05-19T11:27:25;16.05;;;7.60;;
21527;SDS011;10925;49.102;-0.370;2023-05-19T11:29:55;21.65;;;9.43;;
21527;SDS011;10925;49.102;-0.370;2023-05-19T11:32:24;16.83;;;9.43;;
21527;SDS011;10925;49.102;-0.370;2023-05-19T11:34:51;26.45;;;10.05;;
21527;SDS011;10925;49.102;-0.370;2023-05-19T11:37:19;16.42;;;7.13;;
21527;SDS011;10925;49.102;-0.370;2023-05-19T11:39:46;17.45;;;9.73;;
21527;SDS011;10925;49.102;-0.370;2023-05-19T11:42:13;19.35;;;9.57;;
21527;SDS011;10925;49.102;-0.370;2023-05-19T11:44:38;23.83;;;10.77;;
21527;SDS011;10925;49.102;-0.370;2023-05-19T11:47:06;20.38;;;10.30;;
21527;SDS011;10925;49.102;-0.370;2023-05-19T11:49:34;19.52;;;8.82;;
21527;SDS011;10925;49.102;-0.370;2023-05-19T11:51:59;22.40;;;10.27;;
21527;SDS011;10925;49.102;-0.370;2023-05-19T11:54:29;21.40;;;9.77;;
21527;SDS011;10925;49.102;-0.370;2023-05-19T11:57:01;21.60;;;10.48;;
21527;SDS011;10925;49.102;-0.370;2023-05-19T11:59:28;18.60;;;10.13;;
21527;SDS011;10925;49.102;-0.370;2023-05-19T12:02:15;25.38;;;10.13;;
21527;SDS011;10925;49.102;-0.370;2023-05-19T12:04:41;23.52;;;9.30;;
21527;SDS011;10925;49.102;-0.370;2023-05-19T12:07:11;27.58;;;12.82;;
21527;SDS011;10925;49.102;-0.370;2023-05-19T12:09:39;20.98;;;11.70;;
21527;SDS011;10925;49.102;-0.370;2023-05-19T12:12:06;21.60;;;11.05;;
21527;SDS011;10925;49.102;-0.370;2023-05-19T12:14:31;24.00;;;11.93;;
21527;SDS011;10925;49.102;-0.370;2023-05-19T12:16:58;26.67;;;12.38;;
21527;SDS011;10925;49.102;-0.370;2023-05-19T12:19:24;20.70;;;9.15;;
21527;SDS011;10925;49.102;-0.370;2023-05-19T12:21:51;22.17;;;10.85;;
21527;SDS011;10925;49.102;-0.370;2023-05-19T12:24:18;26.60;;;12.13;;
21527;SDS011;10925;49.102;-0.370;2023-05-19T12:26:45;21.70;;;10.00;;
21527;SDS011;10925;49.102;-0.370;2023-05-19T12:29:11;23.95;;;10.45;;
21527;SDS011;10925;49.102;-0.370;2023-05-19T12:31:37;18.23;;;9.75;;
21527;SDS011;10925;49.102;-0.370;2023-05-19T12:34:03;24.27;;;11.00;;
21527;SDS011;10925;49.102;-0.370;2023-05-19T12:36:30;21.83;;;11.63;;
21527;SDS011;10925;49.102;-0.370;2023-05-19T12:38:57;21.42;;;9.10;;
21527;SDS011;10925;49.102;-0.370;2023-05-19T12:41:24;25.80;;;10.13;;
21527;SDS011;10925;49.102;-0.370;2023-05-19T12:43:51;18.27;;;8.52;;
21527;SDS011;10925;49.102;-0.370;2023-05-19T12:46:21;24.27;;;10.95;;
21527;SDS011;10925;49.102;-0.370;2023-05-19T12:48:48;20.40;;;10.07;;
21527;SDS011;10925;49.102;-0.370;2023-05-19T12:51:16;21.67;;;9.38;;
21527;SDS011;10925;49.102;-0.370;2023-05-19T12:53:42;18.67;;;10.63;;
21527;SDS011;10925;49.102;-0.370;2023-05-19T12:56:10;23.92;;;9.35;;
21527;SDS011;10925;49.102;-0.370;2023-05-19T12:58:42;18.30;;;9.77;;
21527;SDS011;10925;49.102;-0.370;2023-05-19T13:01:16;23.35;;;9.02;;
21527;SDS011;10925;49.102;-0.370;2023-05-19T13:03:43;18.60;;;8.77;;
21527;SDS011;10925;49.102;-0.370;2023-05-19T13:06:10;21.08;;;9.02;;
21527;SDS011;10925;49.102;-0.370;2023-05-19T13:08:40;16.48;;;8.18;;
21527;SDS011;10925;49.102;-0.370;2023-05-19T13:11:06;19.83;;;9.50;;
21527;SDS011;10925;49.102;-0.370;2023-05-19T13:13:33;21.67;;;9.18;;
21527;SDS011;10925;49.102;-0.370;2023-05-19T13:16:00;22.73;;;10.75;;
21527;SDS011;10925;49.102;-0.370;2023-05-19T13:18:27;23.85;;;10.13;;
21527;SDS011;10925;49.102;-0.370;2023-05-19T13:20:56;23.92;;;10.10;;
21527;SDS011;10925;49.102;-0.370;2023-05-19T13:23:21;22.15;;;10.18;;
21527;SDS011;10925;49.102;-0.370;2023-05-19T13:25:48;19.10;;;9.93;;
21527;SDS011;10925;49.102;-0.370;2023-05-19T13:28:14;22.08;;;10.57;;
21527;SDS011;10925;49.102;-0.370;2023-05-19T13:30:42;24.70;;;11.18;;
21527;SDS011;10925;49.102;-0.370;2023-05-19T13:33:08;26.70;;;11.40;;
21527;SDS011;10925;49.102;-0.370;2023-05-19T13:35:34;23.30;;;10.88;;
21527;SDS011;10925;49.102;-0.370;2023-05-19T13:38:03;24.45;;;11.32;;
21527;SDS011;10925;49.102;-0.370;2023-05-19T13:40:30;28.33;;;12.57;;
21527;SDS011;10925;49.102;-0.370;2023-05-19T13:43:02;22.73;;;11.35;;
21527;SDS011;10925;49.102;-0.370;2023-05-19T13:45:28;21.77;;;10.25;;
21527;SDS011;10925;49.102;-0.370;2023-05-19T13:47:55;23.75;;;10.82;;
21527;SDS011;10925;49.102;-0.370;2023-05-19T13:50:21;27.73;;;11.73;;
21527;SDS011;10925;49.102;-0.370;2023-05-19T13:52:46;24.48;;;12.18;;
21527;SDS011;10925;49.102;-0.370;2023-05-19T13:55:13;25.58;;;11.00;;
21527;SDS011;10925;49.102;-0.370;2023-05-19T13:57:40;25.85;;;11.68;;
21527;SDS011;10925;49.102;-0.370;2023-05-19T14:00:09;23.70;;;12.77;;
21527;SDS011;10925;49.102;-0.370;2023-05-19T14:02:36;28.45;;;12.80;;
21527;SDS011;10925;49.102;-0.370;2023-05-19T14:05:02;22.92;;;12.30;;
21527;SDS011;10925;49.102;-0.370;2023-05-19T14:07:29;25.02;;;11.13;;
21527;SDS011;10925;49.102;-0.370;2023-05-19T14:09:56;23.85;;;12.05;;
21527;SDS011;10925;49.102;-0.370;2023-05-19T14:12:24;26.42;;;12.18;;
21527;SDS011;10925;49.102;-0.370;2023-05-19T14:15:10;20.90;;;9.70;;
21527;SDS011;10925;49.102;-0.370;2023-05-19T14:17:37;30.33;;;12.93;;
21527;SDS011;10925;49.102;-0.370;2023-05-19T14:20:04;23.90;;;11.95;;
21527;SDS011;10925;49.102;-0.370;2023-05-19T14:22:31;26.80;;;12.07;;
21527;SDS011;10925;49.102;-0.370;2023-05-19T14:24:58;26.92;;;10.35;;
21527;SDS011;10925;49.102;-0.370;2023-05-19T14:27:24;22.83;;;12.32;;
21527;SDS011;10925;49.102;-0.370;2023-05-19T14:29:50;22.75;;;11.52;;
21527;SDS011;10925;49.102;-0.370;2023-05-19T14:32:17;19.45;;;7.03;;
21527;SDS011;10925;49.102;-0.370;2023-05-19T14:34:44;17.65;;;9.98;;
21527;SDS011;10925;49.102;-0.370;2023-05-19T14:37:10;28.63;;;13.07;;
21527;SDS011;10925;49.102;-0.370;2023-05-19T14:39:37;24.25;;;11.88;;
21527;SDS011;10925;49.102;-0.370;2023-05-19T14:42:04;29.30;;;12.25;;
21527;SDS011;10925;49.102;-0.370;2023-05-19T14:44:31;18.00;;;9.07;;
21527;SDS011;10925;49.102;-0.370;2023-05-19T14:47:00;26.05;;;14.52;;
21527;SDS011;10925;49.102;-0.370;2023-05-19T14:49:26;31.13;;;13.20;;
21527;SDS011;10925;49.102;-0.370;2023-05-19T14:51:51;22.25;;;11.27;;
21527;SDS011;10925;49.102;-0.370;2023-05-19T14:54:18;21.55;;;11.35;;
21527;SDS011;10925;49.102;-0.370;2023-05-19T14:56:43;29.98;;;13.15;;